Time;durP1;ratioP1;P1;durP2;ratioP2;P2;SDS_P1;SDS_P2;PMS_P1;PMS_P2;Temp;Humidity;BMP_temperature;BMP_pressure;BME280_temperature;BME280_humidity;BME280_pressure;Samples;Min_cycle;Max_cycle;Signal;HPM_P1;HPM_P2
2022/09/06 00:00:26;;;;;;;7.03;5.50;;;;;;;18.19;95.39;101479.41;5091211;28;20536;-78
2022/09/06 00:02:59;;;;;;;6.75;5.45;;;;;;;18.21;96.61;101533.38;5109048;28;20681;-80
2022/09/06 00:05:29;;;;;;;8.10;5.20;;;;;;;18.02;94.93;101548.47;5110832;28;20042;-75
2022/09/06 00:07:58;;;;;;;6.95;5.38;;;;;;;17.90;95.53;101541.59;5109585;28;20421;-78
2022/09/06 00:10:23;;;;;;;7.65;6.18;;;;;;;17.85;96.51;101546.53;5111078;28;20447;-76
2022/09/06 00:12:49;;;;;;;7.22;6.03;;;;;;;17.78;96.02;101575.53;5110232;28;20058;-76
2022/09/06 00:15:14;;;;;;;7.80;6.05;;;;;;;17.77;95.28;101586.34;5103805;28;20030;-75
2022/09/06 00:17:40;;;;;;;6.50;5.88;;;;;;;17.80;94.93;101602.88;5109821;28;20027;-76
2022/09/06 00:20:08;;;;;;;8.27;6.43;;;;;;;17.80;95.39;101613.50;5110180;28;20051;-76
2022/09/06 00:22:35;;;;;;;9.25;5.97;;;;;;;17.80;94.73;101620.66;5110576;28;20077;-76
2022/09/06 00:25:00;;;;;;;7.88;6.07;;;;;;;17.75;95.44;101617.59;5109111;27;20023;-76
2022/09/06 00:27:27;;;;;;;8.55;5.97;;;;;;;17.80;96.46;101610.84;5110627;28;20028;-76
2022/09/06 00:29:52;;;;;;;7.07;6.28;;;;;;;17.82;97.29;101624.03;5109123;28;20016;-75
2022/09/06 00:32:18;;;;;;;11.18;6.45;;;;;;;17.74;97.11;101618.56;5106926;28;20036;-75
2022/09/06 00:34:43;;;;;;;10.00;6.90;;;;;;;17.73;97.16;101614.22;5091536;28;20046;-75
2022/09/06 00:37:08;;;;;;;7.47;6.57;;;;;;;17.74;97.83;101599.94;5090348;28;20345;-76
2022/09/06 00:39:34;;;;;;;7.72;6.95;;;;;;;17.72;98.86;101602.75;5106042;28;20031;-76
2022/09/06 00:41:59;;;;;;;7.63;6.75;;;;;;;17.72;99.43;101605.41;5109069;28;20023;-75
2022/09/06 00:44:24;;;;;;;7.88;6.32;;;;;;;17.79;99.51;101592.34;5111703;28;20024;-76
2022/09/06 00:46:52;;;;;;;7.60;6.65;;;;;;;17.80;98.59;101583.38;5110984;28;20467;-76
2022/09/06 00:49:45;;;;;;;8.48;6.63;;;;;;;17.81;98.40;101583.25;5100570;28;20063;-76
2022/09/06 00:52:14;;;;;;;7.40;6.65;;;;;;;17.80;99.43;101580.72;5089693;28;20066;-75
2022/09/06 00:54:40;;;;;;;8.90;7.20;;;;;;;17.87;100.00;101583.66;5089990;28;20020;-76
2022/09/06 00:57:05;;;;;;;7.80;6.97;;;;;;;17.86;98.78;101577.50;5089100;28;20028;-75
2022/09/06 00:59:34;;;;;;;7.32;6.53;;;;;;;17.85;99.18;101570.47;5105741;28;20027;-76
2022/09/06 01:01:59;;;;;;;9.45;6.38;;;;;;;17.82;98.59;101550.31;5108977;28;20577;-76
2022/09/06 01:04:26;;;;;;;6.85;6.22;;;;;;;17.80;98.33;101546.13;5109422;28;20114;-76
2022/09/06 01:07:00;;;;;;;9.23;6.75;;;;;;;17.85;100.00;101552.69;5103912;28;20027;-75
2022/09/06 01:09:28;;;;;;;7.82;6.50;;;;;;;17.90;100.00;101546.94;5109766;28;20027;-76
2022/09/06 01:12:02;;;;;;;9.70;7.57;;;;;;;17.89;100.00;101542.59;5104506;28;20042;-76
2022/09/06 01:15:02;;;;;;;9.40;7.55;;;;;;;17.91;100.00;101537.97;5094242;28;20095;-76
2022/09/06 01:17:33;;;;;;;8.48;7.07;;;;;;;17.93;100.00;101520.00;5107938;28;20451;-77
2022/09/06 01:20:26;;;;;;;9.30;7.40;;;;;;;17.93;100.00;101514.69;5102620;28;20512;-78
2022/09/06 01:23:11;;;;;;;8.07;7.30;;;;;;;17.84;100.00;101488.94;5099891;28;20476;-77
2022/09/06 01:25:41;;;;;;;8.55;7.40;;;;;;;17.65;100.00;101457.88;5108261;28;20552;-77
2022/09/06 01:28:29;;;;;;;8.80;7.47;;;;;;;17.64;100.00;101450.03;5098542;28;20039;-77
2022/09/06 01:31:32;;;;;;;8.65;7.82;;;;;;;17.57;100.00;101427.63;5101968;28;20045;-77
2022/09/06 01:34:06;;;;;;;9.20;7.60;;;;;;;17.59;100.00;101425.66;5105674;28;20066;-77
2022/09/06 01:36:39;;;;;;;8.77;7.88;;;;;;;17.57;100.00;101417.81;5109032;28;20038;-78
2022/09/06 01:39:05;;;;;;;8.23;7.32;;;;;;;17.59;100.00;101399.88;5108732;28;20472;-77
2022/09/06 01:41:31;;;;;;;9.20;7.68;;;;;;;17.58;100.00;101392.03;5098254;28;20162;-77
2022/09/06 01:43:57;;;;;;;9.95;7.97;;;;;;;17.55;100.00;101383.38;5101960;28;20053;-77
2022/09/06 01:46:38;;;;;;;9.05;8.05;;;;;;;17.53;100.00;101369.38;5109726;28;20079;-77
2022/09/06 01:49:42;;;;;;;8.75;7.00;;;;;;;17.49;100.00;101357.34;5097918;28;20106;-78
2022/09/06 01:52:07;;;;;;;7.35;6.55;;;;;;;17.40;100.00;101358.22;5081530;28;20124;-77
2022/09/06 01:54:45;;;;;;;8.00;7.20;;;;;;;17.39;100.00;101356.56;5089692;28;20120;-77
2022/09/06 01:57:49;;;;;;;8.38;7.55;;;;;;;17.40;100.00;101358.22;5092855;28;20383;-77
2022/09/06 02:00:17;;;;;;;7.72;6.93;;;;;;;17.37;100.00;101371.81;5046692;28;20033;-77
2022/09/06 02:03:09;;;;;;;8.45;7.50;;;;;;;17.42;100.00;101405.97;5080574;28;20036;-77
2022/09/06 02:05:42;;;;;;;8.63;7.50;;;;;;;17.46;100.00;101439.28;5094814;28;20476;-75
2022/09/06 02:08:14;;;;;;;8.32;7.18;;;;;;;17.44;100.00;101407.50;5108662;28;20036;-77
2022/09/06 02:10:44;;;;;;;7.97;7.20;;;;;;;17.47;100.00;101409.88;5108337;28;20023;-76
2022/09/06 02:13:13;;;;;;;7.70;6.88;;;;;;;17.51;100.00;101408.59;5106758;28;20031;-77
2022/09/06 02:16:03;;;;;;;8.95;7.63;;;;;;;17.53;100.00;101398.63;5106766;28;20022;-77
2022/09/06 02:18:41;;;;;;;7.93;7.05;;;;;;;17.55;100.00;101394.00;5107526;28;20039;-77
2022/09/06 02:21:09;;;;;;;8.25;7.40;;;;;;;17.53;100.00;101398.63;5107804;28;20034;-77
2022/09/06 02:23:39;;;;;;;7.63;7.03;;;;;;;17.53;100.00;101401.31;5106823;28;20030;-77
2022/09/06 02:26:10;;;;;;;7.93;7.10;;;;;;;17.54;100.00;101405.63;5111941;27;20035;-77
2022/09/06 02:28:35;;;;;;;9.55;8.00;;;;;;;17.48;100.00;101400.91;5111828;28;20027;-77
2022/09/06 02:31:08;;;;;;;7.75;6.80;;;;;;;17.50;100.00;101406.06;5109533;28;20022;-77
2022/09/06 02:33:34;;;;;;;8.02;7.05;;;;;;;17.45;100.00;101395.88;5092899;28;20016;-77
2022/09/06 02:36:05;;;;;;;9.35;7.82;;;;;;;17.48;100.00;101387.59;5091937;28;20126;-78
2022/09/06 02:38:34;;;;;;;8.52;7.63;;;;;;;17.40;100.00;101384.00;5091779;28;20047;-78
2022/09/06 02:41:00;;;;;;;7.40;6.70;;;;;;;17.37;100.00;101389.59;5102370;28;20479;-78
2022/09/06 02:43:25;;;;;;;9.00;7.97;;;;;;;17.34;100.00;101385.41;5112677;28;20071;-77
2022/09/06 02:45:54;;;;;;;8.43;7.60;;;;;;;17.31;100.00;101384.84;5112880;28;20027;-77
2022/09/06 02:48:19;;;;;;;7.72;7.13;;;;;;;17.26;100.00;101379.13;5112754;28;20016;-76
2022/09/06 02:50:45;;;;;;;8.38;7.57;;;;;;;17.22;100.00;101392.72;5107979;28;20072;-77
2022/09/06 02:53:12;;;;;;;11.13;8.07;;;;;;;17.20;100.00;101396.47;5092073;28;20052;-76
2022/09/06 02:55:37;;;;;;;9.18;7.60;;;;;;;17.22;100.00;101392.72;5093531;28;20031;-77
2022/09/06 02:58:05;;;;;;;8.82;7.93;;;;;;;17.23;100.00;101390.91;5101091;28;20031;-76
2022/09/06 03:00:30;;;;;;;9.15;8.25;;;;;;;17.25;100.00;101391.59;5113138;28;20020;-77
2022/09/06 03:02:59;;;;;;;10.05;8.65;;;;;;;17.24;100.00;101400.56;5112094;28;20433;-77
2022/09/06 03:05:25;;;;;;;9.52;8.52;;;;;;;17.22;100.00;101392.72;5111896;28;20031;-77
2022/09/06 03:07:53;;;;;;;9.73;8.30;;;;;;;17.30;100.00;101396.47;5105707;28;20031;-77
2022/09/06 03:10:20;;;;;;;9.48;8.43;;;;;;;17.35;100.00;101391.56;5111599;28;20039;-77
2022/09/06 03:12:45;;;;;;;9.68;8.55;;;;;;;17.40;100.00;101389.31;5111489;28;20059;-77
2022/09/06 03:15:13;;;;;;;11.25;8.73;;;;;;;17.40;100.00;101389.31;5109609;28;20442;-77
2022/09/06 03:17:39;;;;;;;9.15;8.25;;;;;;;17.43;100.00;101395.19;5111787;28;20027;-77
2022/09/06 03:20:05;;;;;;;9.02;7.60;;;;;;;17.42;100.00;101397.97;5110287;28;20038;-77
2022/09/06 03:22:31;;;;;;;9.52;7.57;;;;;;;17.45;100.00;101395.03;5093489;28;20679;-77
2022/09/06 03:24:59;;;;;;;8.88;7.35;;;;;;;17.42;100.00;101400.63;5108811;28;20119;-77
2022/09/06 03:27:24;;;;;;;8.43;7.63;;;;;;;17.39;100.00;101399.13;5096360;28;20055;-77
2022/09/06 03:29:49;;;;;;;8.25;7.45;;;;;;;17.42;100.00;101401.47;5110390;28;20553;-77
2022/09/06 03:32:15;;;;;;;9.18;8.15;;;;;;;17.39;100.00;101404.44;5110854;28;20035;-77
2022/09/06 03:34:41;;;;;;;10.13;7.35;;;;;;;17.36;100.00;101402.06;5109531;28;20185;-76
2022/09/06 03:37:07;;;;;;;9.07;8.18;;;;;;;17.33;100.00;101399.69;5109092;28;20023;-76
2022/09/06 03:39:32;;;;;;;10.02;7.93;;;;;;;17.29;100.00;101387.66;5111583;28;20028;-77
2022/09/06 03:41:57;;;;;;;9.60;7.93;;;;;;;17.30;100.00;101386.69;5108791;28;20019;-77
2022/09/06 03:44:23;;;;;;;8.90;7.97;;;;;;;17.25;100.00;101391.59;5095781;28;20043;-77
2022/09/06 03:46:48;;;;;;;9.25;8.25;;;;;;;17.27;100.00;101389.63;5091198;28;20095;-77
2022/09/06 03:49:13;;;;;;;8.85;8.00;;;;;;;17.25;100.00;101394.25;5090000;28;20020;-77
2022/09/06 03:51:38;;;;;;;9.35;8.45;;;;;;;17.18;100.00;101395.78;5110696;28;20072;-77
2022/09/06 03:54:04;;;;;;;9.00;8.10;;;;;;;17.18;100.00;101390.47;5111731;28;20059;-77
2022/09/06 03:56:29;;;;;;;9.77;7.95;;;;;;;17.14;100.00;101394.41;5111694;28;20027;-77
2022/09/06 03:58:54;;;;;;;8.38;7.53;;;;;;;17.16;100.00;101395.09;5111847;28;20028;-77
2022/09/06 04:01:20;;;;;;;11.48;7.43;;;;;;;17.12;100.00;101401.69;5103875;28;20111;-77
2022/09/06 04:03:45;;;;;;;9.77;7.95;;;;;;;17.08;100.00;101406.44;5111716;28;20026;-77
2022/09/06 04:06:11;;;;;;;11.95;8.48;;;;;;;17.02;100.00;101407.00;5111183;28;20278;-77
2022/09/06 04:08:37;;;;;;;8.93;8.07;;;;;;;17.04;100.00;101404.22;5111930;28;20126;-77
2022/09/06 04:11:04;;;;;;;9.15;8.23;;;;;;;16.95;100.00;101416.53;5109860;27;20436;-76
2022/09/06 04:13:30;;;;;;;9.30;8.13;;;;;;;16.97;100.00;101419.88;5110716;28;20027;-77
2022/09/06 04:15:55;;;;;;;9.52;8.63;;;;;;;16.95;100.00;101421.00;5109551;28;20463;-77
2022/09/06 04:18:24;;;;;;;8.90;8.10;;;;;;;16.94;100.00;101429.97;5103551;28;20023;-77
2022/09/06 04:20:54;;;;;;;9.40;8.50;;;;;;;16.80;100.00;101429.38;5110931;28;20054;-77
2022/09/06 04:23:21;;;;;;;10.25;8.68;;;;;;;16.78;100.00;101427.84;5109890;28;20024;-77
2022/09/06 04:25:55;;;;;;;10.18;9.15;;;;;;;16.74;100.00;101429.94;5110680;28;20729;-77
2022/09/06 04:28:20;;;;;;;9.60;8.20;;;;;;;16.76;100.00;101421.84;5110574;28;20387;-76
2022/09/06 04:30:56;;;;;;;10.63;8.77;;;;;;;16.71;100.00;101432.03;5109802;28;20027;-76
2022/09/06 04:33:25;;;;;;;10.65;9.60;;;;;;;16.70;100.00;101423.25;5110365;28;20027;-76
2022/09/06 04:35:59;;;;;;;10.00;9.00;;;;;;;16.72;100.00;101426.59;5105991;28;20030;-76
2022/09/06 04:38:26;;;;;;;9.65;8.63;;;;;;;16.63;100.00;101429.22;5109628;28;20107;-76
2022/09/06 04:40:55;;;;;;;9.95;8.95;;;;;;;16.56;100.00;101436.91;5108820;28;20020;-76
2022/09/06 04:43:21;;;;;;;9.60;8.35;;;;;;;16.48;100.00;101426.13;5109504;28;20067;-76
2022/09/06 04:45:46;;;;;;;10.68;8.63;;;;;;;16.44;100.00;101432.69;5109547;28;20032;-76
2022/09/06 04:48:12;;;;;;;9.95;8.95;;;;;;;16.43;100.00;101431.03;5110190;28;20028;-77
2022/09/06 04:50:38;;;;;;;10.85;9.15;;;;;;;16.43;100.00;101436.34;5110031;28;20027;-76
2022/09/06 04:53:04;;;;;;;9.90;8.88;;;;;;;16.44;100.00;101432.69;5108429;28;20039;-76
2022/09/06 04:55:30;;;;;;;9.77;8.88;;;;;;;16.42;100.00;101426.69;5091543;28;20434;-77
2022/09/06 04:57:59;;;;;;;11.65;9.25;;;;;;;16.38;100.00;101435.88;5090975;28;20032;-77
2022/09/06 05:00:25;;;;;;;10.25;8.95;;;;;;;16.30;100.00;101434.75;5090101;28;20023;-77
2022/09/06 05:02:50;;;;;;;10.75;9.35;;;;;;;16.28;100.00;101434.03;5110303;28;20020;-77
2022/09/06 05:05:16;;;;;;;12.70;9.85;;;;;;;16.28;100.00;101428.72;5109362;28;20031;-79
2022/09/06 05:07:41;;;;;;;12.35;10.13;;;;;;;16.29;100.00;101418.94;5109291;28;20536;-77
2022/09/06 05:10:07;;;;;;;12.65;9.93;;;;;;;16.29;100.00;101411.81;5109203;28;20024;-77
2022/09/06 05:12:32;;;;;;;11.40;10.20;;;;;;;16.24;100.00;101415.88;5103539;28;20023;-77
2022/09/06 05:14:57;;;;;;;12.20;10.32;;;;;;;16.29;100.00;101417.13;5107768;28;20015;-77
2022/09/06 05:17:23;;;;;;;11.70;10.50;;;;;;;16.28;100.00;101412.81;5109203;28;20650;-77
2022/09/06 05:19:48;;;;;;;11.40;10.35;;;;;;;16.27;100.00;101415.59;5108905;28;20106;-77
2022/09/06 05:22:13;;;;;;;18.42;10.95;;;;;;;16.32;100.00;101418.69;5107190;28;20030;-77
2022/09/06 05:24:39;;;;;;;12.02;10.93;;;;;;;16.32;100.00;101423.97;5109306;28;20020;-77
2022/09/06 05:27:06;;;;;;;12.10;10.93;;;;;;;16.30;100.00;101420.63;5108071;28;20097;-78
2022/09/06 05:29:31;;;;;;;12.40;11.13;;;;;;;16.33;100.00;101430.13;5101944;28;20031;-77
2022/09/06 05:31:57;;;;;;;12.77;11.57;;;;;;;16.27;100.00;101420.91;5106806;28;20483;-77
2022/09/06 05:34:22;;;;;;;13.45;12.05;;;;;;;16.33;100.00;101425.66;5107076;28;20032;-77
2022/09/06 05:36:47;;;;;;;12.38;11.25;;;;;;;16.33;100.00;101435.44;5109385;28;20379;-78
2022/09/06 05:39:13;;;;;;;12.52;11.35;;;;;;;16.33;100.00;101432.78;5107514;28;20031;-77
2022/09/06 05:41:38;;;;;;;12.65;11.35;;;;;;;16.39;100.00;101437.56;5108522;28;20015;-77
2022/09/06 05:44:03;;;;;;;13.00;11.68;;;;;;;16.39;100.00;101434.91;5107984;28;20055;-77
2022/09/06 05:46:29;;;;;;;13.30;12.10;;;;;;;16.42;100.00;101435.50;5101291;28;20027;-78
2022/09/06 05:49:06;;;;;;;13.55;11.93;;;;;;;16.48;100.00;101439.41;5106408;28;20023;-78
2022/09/06 05:51:32;;;;;;;12.68;11.30;;;;;;;16.55;100.00;101427.25;5108573;28;20569;-77
2022/09/06 05:53:57;;;;;;;11.68;10.48;;;;;;;16.55;100.00;101440.53;5106972;28;20114;-77
2022/09/06 05:56:23;;;;;;;12.43;11.13;;;;;;;16.60;100.00;101438.31;5106606;28;20157;-77
2022/09/06 05:58:48;;;;;;;12.07;10.88;;;;;;;16.67;100.00;101428.84;5108158;28;20015;-77
2022/09/06 06:01:28;;;;;;;11.88;10.65;;;;;;;16.68;100.00;101441.13;5107490;28;20054;-78
2022/09/06 06:03:57;;;;;;;11.15;10.15;;;;;;;16.66;100.00;101431.63;5107344;28;20031;-78
2022/09/06 06:06:24;;;;;;;12.55;10.48;;;;;;;16.68;100.00;101440.31;5106663;28;20028;-76
2022/09/06 06:08:50;;;;;;;12.93;10.32;;;;;;;16.67;100.00;101430.66;5109349;28;20032;-77
2022/09/06 06:11:15;;;;;;;12.02;10.85;;;;;;;16.68;100.00;101429.66;5108736;28;20022;-77
2022/09/06 06:13:42;;;;;;;12.30;10.23;;;;;;;16.73;100.00;101428.28;5109480;28;20042;-76
2022/09/06 06:16:10;;;;;;;12.45;9.95;;;;;;;16.80;100.00;101429.38;5108198;28;20095;-77
2022/09/06 06:18:36;;;;;;;12.68;9.90;;;;;;;16.86;100.00;101430.69;5106924;28;20016;-76
2022/09/06 06:21:11;;;;;;;12.63;10.05;;;;;;;16.91;100.00;101437.25;5109062;28;20062;-76
2022/09/06 06:23:37;;;;;;;13.00;9.23;;;;;;;16.94;100.00;101429.97;5102658;28;20106;-76
2022/09/06 06:26:05;;;;;;;11.35;10.02;;;;;;;16.99;100.00;101430.38;5107950;28;20016;-76
2022/09/06 06:28:31;;;;;;;10.90;9.65;;;;;;;17.02;100.00;101428.28;5108397;28;20020;-76
2022/09/06 06:30:59;;;;;;;12.27;9.23;;;;;;;17.08;100.00;101427.72;5107450;28;20039;-76
2022/09/06 06:33:24;;;;;;;11.68;9.73;;;;;;;17.10;100.00;101414.28;5090359;28;20028;-77
2022/09/06 06:35:56;;;;;;;13.02;9.30;;;;;;;17.14;100.00;101418.31;5094148;28;20024;-77
2022/09/06 06:38:22;;;;;;;13.85;9.43;;;;;;;17.17;100.00;101421.53;5098504;28;20024;-76
2022/09/06 06:40:47;;;;;;;9.93;8.77;;;;;;;17.25;100.00;101412.88;5104526;28;20084;-76
2022/09/06 06:43:12;;;;;;;13.73;8.68;;;;;;;17.27;100.00;101412.72;5106527;28;20039;-76
2022/09/06 06:45:38;;;;;;;15.27;9.23;;;;;;;17.34;100.00;101422.66;5095288;28;20106;-77
2022/09/06 06:48:03;;;;;;;10.80;8.02;;;;;;;17.41;100.00;101410.44;5100848;28;20735;-76
2022/09/06 06:50:28;;;;;;;12.52;8.55;;;;;;;17.53;100.00;101422.59;5088203;28;20614;-77
2022/09/06 06:52:54;;;;;;;13.82;8.43;;;;;;;17.64;100.00;101415.44;5099189;28;20466;-77
2022/09/06 06:55:19;;;;;;;8.95;7.75;;;;;;;17.76;100.00;101416.97;5107543;28;20073;-77
2022/09/06 06:57:44;;;;;;;8.05;7.25;;;;;;;17.86;98.24;101420.41;5105707;28;20053;-77
2022/09/06 07:00:10;;;;;;;9.50;7.43;;;;;;;18.04;98.37;101418.66;5106730;28;20525;-77
2022/09/06 07:02:35;;;;;;;7.45;6.72;;;;;;;18.16;97.60;101420.13;5106591;28;20023;-76
2022/09/06 07:05:01;;;;;;;8.52;6.70;;;;;;;18.30;96.78;101410.78;5104393;28;20070;-77
2022/09/06 07:07:26;;;;;;;7.97;6.03;;;;;;;18.48;93.25;101417.00;5105821;28;20118;-77
2022/09/06 07:09:51;;;;;;;7.38;6.15;;;;;;;18.63;93.16;101409.34;5107278;28;20034;-76
2022/09/06 07:12:17;;;;;;;8.65;6.10;;;;;;;18.75;92.34;101399.28;5110381;28;20042;-80
2022/09/06 07:14:42;;;;;;;10.52;5.47;;;;;;;18.93;91.37;101408.13;5113415;28;20110;-80
2022/09/06 07:17:08;;;;;;;6.65;5.40;;;;;;;19.07;90.95;101398.72;5097141;28;20077;-83
2022/09/06 07:19:33;;;;;;;7.70;5.35;;;;;;;19.26;88.84;101406.53;5092120;28;20028;-80
2022/09/06 07:21:58;;;;;;;7.05;5.03;;;;;;;19.38;89.20;101412.44;5093752;28;20020;-80
2022/09/06 07:24:24;;;;;;;6.68;5.05;;;;;;;19.54;88.95;101417.06;5111686;28;20420;-81
2022/09/06 07:26:49;;;;;;;7.95;5.13;;;;;;;19.75;88.22;101414.88;5112642;28;20020;-82
2022/09/06 07:29:14;;;;;;;4.53;4.03;;;;;;;19.96;84.96;101411.78;5104895;28;20053;-81
2022/09/06 07:31:40;;;;;;;6.65;4.32;;;;;;;20.19;84.50;101409.38;5108212;28;20023;-81
2022/09/06 07:34:05;;;;;;;6.93;4.63;;;;;;;20.25;83.36;101401.53;5095583;28;20032;-81
2022/09/06 07:36:30;;;;;;;7.22;3.70;;;;;;;20.46;80.04;101406.47;5090850;28;20024;-82
2022/09/06 07:38:59;;;;;;;7.40;3.95;;;;;;;20.72;80.37;101409.00;5107809;28;20030;-82
2022/09/06 07:41:24;;;;;;;6.20;3.47;;;;;;;20.90;78.65;101412.38;5108092;28;20114;-77
2022/09/06 07:43:53;;;;;;;7.88;3.92;;;;;;;21.02;78.95;101418.22;5102927;28;20127;-80
2022/09/06 07:46:19;;;;;;;12.80;3.72;;;;;;;21.08;76.81;101404.16;5110894;28;20034;-77
2022/09/06 07:48:45;;;;;;;5.68;3.80;;;;;;;21.42;76.44;101411.19;5110422;28;20462;-77
2022/09/06 07:51:14;;;;;;;5.28;3.53;;;;;;;21.64;75.12;101407.81;5109302;28;20046;-81
2022/09/06 07:53:40;;;;;;;6.28;3.38;;;;;;;21.74;73.09;101411.13;5111518;28;20023;-77
2022/09/06 07:56:09;;;;;;;6.45;3.10;;;;;;;21.96;74.36;101406.00;5109313;28;20506;-77
2022/09/06 07:58:35;;;;;;;4.82;2.90;;;;;;;22.22;71.00;101393.19;5101182;28;20020;-77
2022/09/06 08:01:29;;;;;;;7.50;3.00;;;;;;;22.45;73.18;101394.06;5097519;28;20547;-77
2022/09/06 08:04:01;;;;;;;4.47;2.75;;;;;;;22.63;70.84;101387.56;5109722;28;20027;-77
2022/09/06 08:06:28;;;;;;;3.70;2.50;;;;;;;22.83;71.10;101391.47;5110845;28;20517;-79
2022/09/06 08:08:54;;;;;;;2.88;2.30;;;;;;;22.99;67.17;101385.94;5108891;28;20114;-77
2022/09/06 08:11:20;;;;;;;3.90;2.05;;;;;;;22.83;65.86;101385.28;5109620;28;20049;-77
2022/09/06 08:13:53;;;;;;;3.33;2.28;;;;;;;22.59;68.65;101395.13;5110729;28;20076;-78
2022/09/06 08:16:19;;;;;;;6.97;2.50;;;;;;;22.50;67.02;101399.72;5110287;28;20038;-80
2022/09/06 08:18:49;;;;;;;4.15;2.60;;;;;;;22.43;68.63;101395.25;5110072;28;20026;-77
2022/09/06 08:21:15;;;;;;;4.53;2.50;;;;;;;22.48;68.54;101398.22;5110417;28;20421;-80
2022/09/06 08:23:47;;;;;;;5.35;2.10;;;;;;;22.36;67.90;101403.13;5111144;28;20084;-80
2022/09/06 08:26:14;;;;;;;5.22;2.20;;;;;;;22.32;68.37;101404.50;5111128;28;20110;-77
2022/09/06 08:28:39;;;;;;;5.10;2.15;;;;;;;22.23;68.76;101408.25;5110719;28;20035;-80
2022/09/06 08:31:05;;;;;;;5.35;2.30;;;;;;;22.18;68.58;101407.94;5109192;28;20024;-77
2022/09/06 08:33:31;;;;;;;4.13;2.20;;;;;;;22.55;69.05;101409.06;5111748;28;20019;-77
2022/09/06 08:35:57;;;;;;;5.07;2.30;;;;;;;22.73;67.66;101404.25;5111229;28;20569;-77
2022/09/06 08:38:23;;;;;;;4.40;2.50;;;;;;;22.84;67.85;101386.94;5109198;28;20020;-77
2022/09/06 08:40:50;;;;;;;4.85;2.10;;;;;;;23.35;66.68;101401.38;5110497;28;20395;-78
2022/09/06 08:43:21;;;;;;;4.82;2.40;;;;;;;23.53;65.30;101398.34;5104425;28;20065;-78
2022/09/06 08:45:53;;;;;;;4.63;2.42;;;;;;;23.78;64.82;101398.94;5093774;28;20456;-78
2022/09/06 08:48:19;;;;;;;39.67;6.72;;;;;;;23.88;63.24;101394.09;5107293;28;20038;-78
2022/09/06 08:50:58;;;;;;;12.23;2.88;;;;;;;24.15;64.16;101393.41;5108950;28;20602;-79
2022/09/06 08:53:25;;;;;;;5.20;2.60;;;;;;;24.09;62.53;101387.97;5110263;28;20024;-79
2022/09/06 08:56:16;;;;;;;3.70;2.75;;;;;;;24.26;61.86;101392.91;5110461;28;20033;-79
2022/09/06 08:58:48;;;;;;;6.00;2.85;;;;;;;24.33;62.80;101398.38;5079563;28;20040;-79
2022/09/06 09:01:17;;;;;;;2.38;1.98;;;;;;;24.37;62.18;101395.13;5089166;28;20047;-79
2022/09/06 09:03:44;;;;;;;3.88;2.30;;;;;;;24.57;60.53;101394.53;5088430;28;20545;-79
2022/09/06 09:06:10;;;;;;;5.28;2.40;;;;;;;24.70;61.33;101391.94;5087149;28;20583;-79
2022/09/06 09:08:57;;;;;;;4.30;2.38;;;;;;;24.86;61.73;101402.47;5090853;28;20099;-79
2022/09/06 09:11:27;;;;;;;4.97;2.50;;;;;;;24.81;59.92;101388.72;5109379;28;20031;-79
2022/09/06 09:14:02;;;;;;;3.80;2.33;;;;;;;24.75;59.10;101389.50;5107600;28;20027;-79
2022/09/06 09:16:28;;;;;;;4.38;2.20;;;;;;;24.62;59.27;101379.47;5110148;28;20374;-79
2022/09/06 09:19:02;;;;;;;3.47;2.30;;;;;;;24.61;59.69;101372.41;5109877;28;20028;-79
2022/09/06 09:21:31;;;;;;;4.22;2.15;;;;;;;24.66;60.08;101379.91;5096355;28;20020;-79
2022/09/06 09:24:01;;;;;;;8.13;2.53;;;;;;;24.60;59.65;101373.44;5108966;28;20019;-78
2022/09/06 09:26:33;;;;;;;5.90;2.28;;;;;;;24.79;59.84;101385.41;5108469;28;20486;-77
2022/09/06 09:29:04;;;;;;;5.03;2.35;;;;;;;24.80;60.00;101380.84;5110001;28;20399;-78
2022/09/06 09:31:39;;;;;;;5.07;2.80;;;;;;;24.83;59.51;101383.19;5110033;28;20053;-77
2022/09/06 09:34:09;;;;;;;5.97;2.50;;;;;;;24.70;59.15;101386.56;5109080;28;20494;-77
2022/09/06 09:36:35;;;;;;;5.40;2.33;;;;;;;24.65;60.05;101383.63;5107351;28;20027;-77
2022/09/06 09:39:08;;;;;;;5.07;2.40;;;;;;;24.84;60.03;101383.00;5107760;28;20038;-77
2022/09/06 09:41:35;;;;;;;5.60;2.28;;;;;;;24.76;59.06;101380.41;5109393;28;20020;-77
2022/09/06 09:44:03;;;;;;;4.88;2.35;;;;;;;25.03;59.95;101375.28;5096865;28;20051;-78
2022/09/06 09:46:34;;;;;;;5.60;2.42;;;;;;;25.08;58.37;101373.66;5105069;28;20019;-78
2022/09/06 09:49:10;;;;;;;3.95;2.00;;;;;;;25.24;58.91;101377.94;5105883;28;20803;-78
2022/09/06 09:51:41;;;;;;;4.90;2.50;;;;;;;25.16;58.01;101370.81;5108778;28;20031;-78
2022/09/06 09:54:10;;;;;;;4.93;2.58;;;;;;;25.30;58.19;101371.75;5107536;28;20107;-78
2022/09/06 09:56:40;;;;;;;3.47;2.83;;;;;;;25.36;57.99;101372.84;5108924;28;20114;-78
2022/09/06 09:59:19;;;;;;;5.60;2.45;;;;;;;25.61;57.20;101371.31;5104916;28;20051;-78
2022/09/06 10:01:45;;;;;;;4.93;2.75;;;;;;;25.67;57.27;101372.44;5106682;28;20028;-78
2022/09/06 10:04:17;;;;;;;5.85;2.40;;;;;;;25.50;57.55;101380.78;5108209;28;20019;-78
2022/09/06 10:06:42;;;;;;;5.07;2.70;;;;;;;25.43;56.43;101388.00;5107220;28;20498;-79
2022/09/06 10:09:19;;;;;;;4.38;2.17;;;;;;;25.67;58.46;101397.53;5101908;28;20051;-78
2022/09/06 10:11:53;;;;;;;6.55;2.72;;;;;;;25.75;56.85;101393.81;5102392;28;20107;-78
2022/09/06 10:14:40;;;;;;;7.00;2.80;;;;;;;25.81;59.18;101395.72;5103378;28;20030;-78
2022/09/06 10:17:06;;;;;;;5.28;2.70;;;;;;;25.75;56.43;101393.81;5095672;28;20531;-78
2022/09/06 10:19:39;;;;;;;5.55;3.15;;;;;;;25.58;56.02;101391.41;5110051;28;20099;-79
2022/09/06 10:22:07;;;;;;;5.93;3.28;;;;;;;25.51;57.03;101397.78;5107152;28;20103;-79
2022/09/06 10:25:06;;;;;;;4.95;2.95;;;;;;;25.70;57.66;101404.38;5101417;28;20028;-79
2022/09/06 10:27:32;;;;;;;7.65;2.80;;;;;;;25.78;57.81;101394.25;5109723;28;20031;-78
2022/09/06 10:30:08;;;;;;;6.03;3.45;;;;;;;25.75;56.70;101397.34;5107300;28;20015;-79
2022/09/06 10:33:02;;;;;;;7.38;3.60;;;;;;;25.80;56.64;101391.34;5108252;28;20038;-78
2022/09/06 10:35:34;;;;;;;5.25;2.88;;;;;;;26.00;56.83;101394.97;5100695;28;20107;-79
2022/09/06 10:38:29;;;;;;;10.68;3.60;;;;;;;26.06;56.35;101390.66;5106807;28;20023;-79
2022/09/06 10:41:13;;;;;;;6.55;3.50;;;;;;;26.16;56.37;101394.63;5107966;28;20023;-77
2022/09/06 10:43:56;;;;;;;10.77;4.00;;;;;;;26.20;55.80;101389.66;5108856;28;20052;-78
2022/09/06 10:46:25;;;;;;;5.50;3.17;;;;;;;26.19;55.37;101388.00;5111333;28;20043;-78
2022/09/06 10:48:54;;;;;;;5.90;3.78;;;;;;;26.01;54.62;101385.84;5109433;28;20078;-79
2022/09/06 10:51:38;;;;;;;6.85;3.60;;;;;;;26.04;55.53;101381.94;5108416;28;20103;-79
2022/09/06 10:54:12;;;;;;;5.57;3.40;;;;;;;26.12;55.77;101377.19;5100775;28;20458;-79
2022/09/06 10:56:42;;;;;;;6.03;3.42;;;;;;;26.19;55.70;101379.91;5109174;28;20033;-80
2022/09/06 10:59:34;;;;;;;7.25;3.72;;;;;;;26.15;55.72;101382.16;5111533;28;20073;-79
2022/09/06 11:01:59;;;;;;;5.32;3.72;;;;;;;26.23;55.26;101381.16;5110156;28;20021;-79
2022/09/06 11:04:31;;;;;;;6.10;3.73;;;;;;;26.47;56.26;101385.19;5110408;28;20110;-79
2022/09/06 11:07:02;;;;;;;4.45;3.25;;;;;;;26.65;54.92;101387.28;5109975;28;20804;-79
2022/09/06 11:09:38;;;;;;;4.53;3.15;;;;;;;27.07;54.78;101381.50;5107520;28;20026;-79
2022/09/06 11:12:18;;;;;;;5.85;3.33;;;;;;;27.20;53.59;101380.66;5102562;28;20384;-78
2022/09/06 11:14:45;;;;;;;5.78;3.40;;;;;;;27.28;52.35;101388.56;5111610;28;20053;-79
2022/09/06 11:17:21;;;;;;;5.35;3.35;;;;;;;27.15;51.45;101391.28;5109886;28;20096;-78
2022/09/06 11:20:03;;;;;;;9.55;3.92;;;;;;;27.12;52.73;101395.22;5103146;28;20031;-78
2022/09/06 11:22:31;;;;;;;5.95;3.38;;;;;;;27.18;52.14;101393.53;5105729;28;20027;-79
2022/09/06 11:25:50;;;;;;;4.70;3.40;;;;;;;27.40;52.83;101400.38;5109332;28;20047;-78
2022/09/06 11:28:34;;;;;;;8.70;3.50;;;;;;;27.40;52.03;101403.09;5099591;28;20551;-78
2022/09/06 11:31:00;;;;;;;7.50;3.88;;;;;;;27.51;51.26;101387.25;5111068;28;20030;-78